Time;durP1;ratioP1;P1;durP2;ratioP2;P2;SDS_P1;SDS_P2;PMS_P1;PMS_P2;Temp;Humidity;BMP_temperature;BMP_pressure;BME280_temperature;BME280_humidity;BME280_pressure;Samples;Min_cycle;Max_cycle;Signal;HPM_P1;HPM_P2
2021/09/05 00:00:21;;;;;;;11.55;4.75;;;;;;;16.64;90.10;99616.30;4296713;81;28506;-83
2021/09/05 00:06:25;;;;;;;9.20;4.78;;;;;;;16.01;94.96;99618.91;4340712;80;28492;-84
2021/09/05 00:12:27;;;;;;;8.65;4.72;;;;;;;16.62;91.22;99619.28;4303237;81;28469;-83
2021/09/05 00:18:28;;;;;;;9.23;4.33;;;;;;;16.60;91.60;99620.06;4355548;81;28495;-85
2021/09/05 00:24:29;;;;;;;7.45;4.00;;;;;;;16.31;95.08;99632.55;4302511;83;28440;-84
2021/09/05 00:30:31;;;;;;;13.15;4.25;;;;;;;16.85;88.16;99618.11;4301591;83;28557;-83
2021/09/05 00:36:32;;;;;;;8.35;4.50;;;;;;;16.74;89.06;99619.10;4302318;83;28472;-85
2021/09/05 00:42:35;;;;;;;10.38;4.80;;;;;;;16.39;92.69;99627.99;4301938;83;28476;-85
2021/09/05 00:48:36;;;;;;;8.73;4.30;;;;;;;16.48;91.74;99619.40;4301645;83;28488;-84
2021/09/05 00:54:41;;;;;;;8.98;3.90;;;;;;;16.49;91.93;99621.87;4290636;82;28562;-84
2021/09/05 01:00:41;;;;;;;10.05;4.70;;;;;;;16.34;93.49;99623.88;4300383;80;28582;-83
2021/09/05 01:06:44;;;;;;;10.88;5.47;;;;;;;16.42;92.68;99634.29;4363736;81;28483;-85
2021/09/05 01:12:47;;;;;;;7.22;3.83;;;;;;;16.52;91.74;99634.11;4359374;80;28519;-84
2021/09/05 01:18:49;;;;;;;9.78;4.17;;;;;;;16.45;93.00;99634.30;4360739;81;28455;-84
2021/09/05 01:25:02;;;;;;;9.13;4.22;;;;;;;16.44;92.62;99641.63;4349840;81;28485;-84
2021/09/05 01:31:08;;;;;;;8.75;4.20;;;;;;;16.26;93.55;99644.16;4221508;83;28657;-83
2021/09/05 01:37:28;;;;;;;9.43;4.47;;;;;;;15.96;95.90;99648.14;4266269;83;28513;-84
2021/09/05 01:43:32;;;;;;;7.37;3.62;;;;;;;15.77;97.06;99654.34;4254808;81;28501;-84
2021/09/05 01:49:51;;;;;;;7.62;4.10;;;;;;;15.99;94.79;99646.27;4184259;85;28544;-84
2021/09/05 01:56:11;;;;;;;7.65;4.22;;;;;;;16.22;90.53;99655.77;4153172;84;28542;-84
2021/09/05 02:02:31;;;;;;;11.40;4.60;;;;;;;15.95;93.71;99660.58;4167857;84;28575;-86
2021/09/05 02:08:37;;;;;;;8.68;4.47;;;;;;;15.54;97.73;99668.95;4107747;85;28494;-86
2021/09/05 02:14:46;;;;;;;8.35;3.92;;;;;;;15.48;98.02;99668.86;4171651;83;28477;-84
2021/09/05 02:21:06;;;;;;;9.43;4.20;;;;;;;15.64;95.99;99679.11;4110699;87;28508;-83
2021/09/05 02:27:16;;;;;;;10.35;4.53;;;;;;;15.44;98.12;99673.67;4168844;85;28493;-84
2021/09/05 02:33:20;;;;;;;11.70;5.00;;;;;;;15.34;98.17;99683.28;4153285;84;28478;-84
2021/09/05 02:39:26;;;;;;;9.33;4.83;;;;;;;15.03;100.00;99681.97;4153129;85;28513;-83
2021/09/05 02:45:45;;;;;;;10.65;3.95;;;;;;;15.09;100.00;99680.17;4061187;86;28522;-84
2021/09/05 02:51:51;;;;;;;7.33;3.83;;;;;;;15.04;100.00;99681.70;4129213;86;28537;-84
2021/09/05 02:58:00;;;;;;;6.95;3.80;;;;;;;14.84;100.00;99686.25;4169156;83;28560;-83
2021/09/05 03:04:03;;;;;;;6.75;3.67;;;;;;;15.04;100.00;99683.06;4167737;85;28499;-84
2021/09/05 03:10:07;;;;;;;8.60;3.80;;;;;;;14.82;100.00;99678.91;4107244;86;28584;-84
2021/09/05 03:16:27;;;;;;;8.63;3.70;;;;;;;15.03;100.00;99680.62;4170156;85;28584;-84
2021/09/05 03:22:35;;;;;;;7.58;3.75;;;;;;;13.99;100.00;99682.70;4167199;85;28509;-84
2021/09/05 03:28:55;;;;;;;10.20;4.12;;;;;;;14.20;100.00;99676.36;4107262;86;28571;-85
2021/09/05 03:35:15;;;;;;;9.48;4.53;;;;;;;13.31;100.00;99684.39;4169442;85;28533;-84
2021/09/05 03:41:30;;;;;;;8.58;4.05;;;;;;;13.76;100.00;99691.64;4110607;86;28498;-84
2021/09/05 03:47:42;;;;;;;9.75;4.15;;;;;;;13.29;100.00;99698.66;4169317;85;28577;-84
2021/09/05 03:53:51;;;;;;;7.03;3.65;;;;;;;13.45;100.00;99700.40;4013666;87;28496;-84
2021/09/05 03:59:54;;;;;;;8.98;4.10;;;;;;;13.77;100.00;99701.39;4113825;87;28492;-84
2021/09/05 04:05:56;;;;;;;9.45;4.50;;;;;;;13.98;100.00;99699.98;4113833;86;28505;-84
2021/09/05 04:11:58;;;;;;;8.55;4.20;;;;;;;14.34;100.00;99705.31;4113658;86;28472;-85
2021/09/05 04:17:59;;;;;;;11.95;5.40;;;;;;;14.04;100.00;99712.53;4113518;86;28508;-85
2021/09/05 04:24:00;;;;;;;11.08;5.05;;;;;;;13.62;100.00;99725.67;4111496;86;28534;-83
2021/09/05 04:30:05;;;;;;;8.95;4.47;;;;;;;14.15;100.00;99736.56;4112043;87;28520;-84
2021/09/05 04:36:06;;;;;;;9.90;5.08;;;;;;;14.29;100.00;99734.95;4114556;85;28511;-83
2021/09/05 04:42:08;;;;;;;8.50;4.53;;;;;;;13.65;100.00;99734.65;4147168;83;28508;-82
2021/09/05 04:48:10;;;;;;;10.60;4.92;;;;;;;14.25;100.00;99747.31;4196005;83;28530;-83
2021/09/05 04:54:13;;;;;;;9.08;4.87;;;;;;;14.02;100.00;99755.20;4163709;83;28590;-84
2021/09/05 05:00:15;;;;;;;9.18;4.22;;;;;;;13.73;100.00;99761.03;4174783;84;28518;-84
2021/09/05 05:06:16;;;;;;;8.80;4.35;;;;;;;13.77;100.00;99769.80;4168597;84;28525;-85
2021/09/05 05:12:18;;;;;;;8.83;4.33;;;;;;;14.15;100.00;99767.66;4203654;85;28516;-84
2021/09/05 05:18:19;;;;;;;10.28;4.40;;;;;;;14.48;100.00;99775.66;4176850;84;28527;-84
2021/09/05 05:24:20;;;;;;;9.13;4.10;;;;;;;14.91;100.00;99782.20;4248696;82;28499;-84
2021/09/05 05:30:22;;;;;;;7.75;3.87;;;;;;;14.14;100.00;99793.58;4158029;85;28484;-85
2021/09/05 05:36:23;;;;;;;7.55;4.40;;;;;;;14.52;100.00;99802.23;4157708;84;28489;-85
2021/09/05 05:42:25;;;;;;;8.75;4.40;;;;;;;14.57;100.00;99806.41;4157916;84;28518;-84
2021/09/05 05:48:26;;;;;;;9.48;4.08;;;;;;;15.02;100.00;99815.73;4157419;86;28527;-83
2021/09/05 05:54:28;;;;;;;9.13;4.47;;;;;;;15.85;97.73;99814.44;4151141;84;28513;-85
2021/09/05 06:00:30;;;;;;;8.53;4.40;;;;;;;16.21;92.94;99810.92;4132100;86;28468;-85
2021/09/05 06:06:33;;;;;;;8.75;4.70;;;;;;;15.60;99.17;99825.14;4305480;82;28496;-85
2021/09/05 06:12:34;;;;;;;9.35;4.67;;;;;;;15.34;100.00;99829.58;4294596;82;28522;-85
2021/09/05 06:18:36;;;;;;;8.58;4.50;;;;;;;15.34;100.00;99836.35;4287146;82;28525;-82
2021/09/05 06:24:37;;;;;;;8.93;4.60;;;;;;;15.45;100.00;99846.85;4270138;83;28465;-83
2021/09/05 06:30:39;;;;;;;8.25;4.03;;;;;;;15.86;96.27;99843.20;4216952;83;28547;-85
2021/09/05 06:36:41;;;;;;;8.08;4.42;;;;;;;15.29;100.00;99847.11;4252956;82;28501;-85
2021/09/05 06:42:42;;;;;;;7.72;3.72;;;;;;;16.52;89.45;99843.11;4258442;83;28504;-85
2021/09/05 06:48:44;;;;;;;7.72;3.60;;;;;;;16.15;91.91;99848.01;4266901;82;28486;-84
2021/09/05 06:54:46;;;;;;;7.42;3.95;;;;;;;16.78;87.88;99853.77;4160377;84;28529;-84
2021/09/05 07:00:48;;;;;;;7.33;3.60;;;;;;;17.02;85.46;99859.48;4196338;84;28472;-82
2021/09/05 07:06:49;;;;;;;7.85;3.55;;;;;;;16.72;91.21;99861.55;4157885;85;28533;-82
2021/09/05 07:12:50;;;;;;;7.28;3.58;;;;;;;16.92;84.82;99871.03;4154793;85;28485;-85
2021/09/05 07:18:52;;;;;;;6.33;3.58;;;;;;;16.89;80.54;99885.92;4151892;84;28531;-84
2021/09/05 07:24:53;;;;;;;5.90;3.33;;;;;;;17.27;81.28;99891.03;4156422;85;28512;-84
2021/09/05 07:30:54;;;;;;;5.03;3.10;;;;;;;17.41;82.28;99901.50;4158362;84;28500;-85
2021/09/05 07:36:55;;;;;;;6.67;2.55;;;;;;;17.44;82.94;99905.05;4147133;84;28456;-87
2021/09/05 07:42:57;;;;;;;8.65;3.02;;;;;;;17.50;81.51;99905.40;4147383;85;28520;-88
2021/09/05 07:48:58;;;;;;;4.97;2.65;;;;;;;17.60;77.51;99912.86;4205191;83;28563;-87
2021/09/05 07:55:00;;;;;;;5.70;2.45;;;;;;;17.75;77.29;99917.59;4201730;83;28551;-89
2021/09/05 08:01:01;;;;;;;5.53;2.50;;;;;;;17.23;73.32;99925.77;4133108;86;28452;-80
2021/09/05 08:07:03;;;;;;;4.55;2.17;;;;;;;17.60;72.39;99935.14;4158657;86;28531;-82
2021/09/05 08:13:05;;;;;;;5.62;2.40;;;;;;;17.47;73.86;99942.63;4157030;86;28476;-84
2021/09/05 08:19:06;;;;;;;4.47;1.98;;;;;;;17.87;72.61;99946.56;4144210;85;28498;-78
2021/09/05 08:25:08;;;;;;;3.95;1.80;;;;;;;18.27;70.38;99952.09;4120658;86;28492;-81
2021/09/05 08:31:10;;;;;;;3.08;1.72;;;;;;;18.03;61.66;99954.33;4157477;85;28514;-84
2021/09/05 08:37:12;;;;;;;7.30;2.40;;;;;;;18.13;64.11;99951.73;4191378;85;28541;-83
2021/09/05 08:43:16;;;;;;;3.70;1.37;;;;;;;18.09;65.05;99952.78;4170349;83;28534;-84
2021/09/05 08:49:18;;;;;;;3.08;1.50;;;;;;;18.24;61.09;99951.25;4157505;86;28511;-84
2021/09/05 08:55:19;;;;;;;2.17;1.50;;;;;;;18.46;63.27;99956.60;4160611;85;28497;-81
2021/09/05 09:01:28;;;;;;;2.98;1.42;;;;;;;18.36;60.72;99964.70;4189453;85;28488;-78
2021/09/05 09:07:29;;;;;;;2.45;1.25;;;;;;;18.42;58.50;99958.19;4185635;85;28501;-81
2021/09/05 09:13:37;;;;;;;2.65;1.20;;;;;;;18.44;55.52;99957.94;4134545;86;28462;-77
2021/09/05 09:19:45;;;;;;;3.33;1.00;;;;;;;18.54;50.32;99967.55;4177674;85;28515;-85
2021/09/05 09:25:57;;;;;;;4.33;1.27;;;;;;;18.87;49.24;99949.78;4274231;83;28485;-82
2021/09/05 09:32:10;;;;;;;3.33;1.40;;;;;;;18.61;53.46;99965.42;4256799;83;28516;-81
2021/09/05 09:38:16;;;;;;;2.92;1.10;;;;;;;18.97;53.63;99957.17;4252067;82;28478;-80
2021/09/05 09:44:17;;;;;;;2.23;0.90;;;;;;;19.26;49.36;99960.33;4216703;84;28513;-79
2021/09/05 09:50:22;;;;;;;1.95;0.85;;;;;;;19.06;50.91;99963.27;4214281;82;28561;-81
2021/09/05 09:56:25;;;;;;;2.10;0.90;;;;;;;18.90;45.86;99963.70;4265680;83;28557;-82
2021/09/05 10:02:27;;;;;;;1.77;0.90;;;;;;;19.12;44.63;99959.19;4297877;81;28447;-79
2021/09/05 10:08:32;;;;;;;1.37;0.65;;;;;;;19.63;46.66;99957.20;4295222;82;28504;-79
2021/09/05 10:14:33;;;;;;;1.85;0.72;;;;;;;19.53;45.67;99957.17;4306218;82;28485;-81
2021/09/05 10:20:35;;;;;;;1.37;0.82;;;;;;;19.80;46.47;99963.78;4328565;82;28460;-80
2021/09/05 10:26:36;;;;;;;2.87;0.85;;;;;;;19.55;44.36;99950.34;4330651;81;28485;-82
2021/09/05 10:33:00;;;;;;;1.40;0.85;;;;;;;19.78;47.05;99961.30;4157006;85;28526;-84
2021/09/05 10:39:08;;;;;;;1.70;0.72;;;;;;;19.86;44.48;99956.42;4101071;84;28469;-82
2021/09/05 10:45:12;;;;;;;2.22;0.80;;;;;;;19.87;45.73;99949.87;4167454;85;28503;-83
2021/09/05 10:51:16;;;;;;;1.32;0.80;;;;;;;19.82;40.06;99962.13;4233987;83;28521;-84
2021/09/05 10:57:38;;;;;;;2.40;0.90;;;;;;;19.89;41.60;99968.14;4190850;84;28493;-90
2021/09/05 11:04:15;;;;;;;2.27;1.05;;;;;;;20.22;43.09;99961.11;4209719;82;28498;-85
2021/09/05 11:10:23;;;;;;;;;;;;;;;20.08;43.56;99968.46;4231185;84;28485;-80
2021/09/05 11:16:24;;;;;;;1.47;0.80;;;;;;;20.27;42.63;99961.94;4235146;84;20282;-83
2021/09/05 11:22:32;;;;;;;2.02;1.00;;;;;;;20.59;43.41;99956.71;4229991;84;28466;-79
2021/09/05 11:28:35;;;;;;;3.02;0.80;;;;;;;20.70;41.95;99956.13;4272424;83;28532;-74
2021/09/05 11:34:41;;;;;;;1.75;0.80;;;;;;;20.55;43.24;99960.27;4240320;83;28435;-79
2021/09/05 11:40:49;;;;;;;;;;;;;;;20.80;42.94;99953.11;4239287;84;28509;-80
2021/09/05 11:47:14;;;;;;;1.52;0.82;;;;;;;20.33;38.38;99951.83;4235693;84;20197;-81
2021/09/05 11:53:22;;;;;;;1.65;0.50;;;;;;;20.18;41.60;99950.72;4235268;83;28525;-80
2021/09/05 11:59:24;;;;;;;1.10;0.62;;;;;;;20.22;41.25;99952.36;4232289;83;28495;-80
2021/09/05 12:05:27;;;;;;;2.35;0.70;;;;;;;20.89;41.96;99941.38;4260575;84;28542;-81
2021/09/05 12:11:29;;;;;;;1.57;0.85;;;;;;;20.23;41.51;99953.19;4260308;84;28460;-80
2021/09/05 12:17:30;;;;;;;1.20;0.60;;;;;;;20.52;41.13;99943.88;4259745;84;28522;-81
2021/09/05 12:23:34;;;;;;;1.22;0.70;;;;;;;20.65;40.45;99941.66;4260678;84;28503;-81
2021/09/05 12:29:36;;;;;;;0.78;0.60;;;;;;;20.69;40.36;99936.73;4261075;84;28480;-81
2021/09/05 12:35:42;;;;;;;2.30;0.70;;;;;;;20.79;39.36;99941.38;4260375;84;28481;-80
2021/09/05 12:41:44;;;;;;;1.00;0.60;;;;;;;21.12;40.98;99941.00;4261017;84;28538;-76
2021/09/05 12:47:47;;;;;;;4.00;0.90;;;;;;;20.87;40.92;99939.44;4243406;84;28498;-78
2021/09/05 12:54:04;;;;;;;2.20;0.70;;;;;;;21.10;41.40;99935.83;4189224;85;28470;-78
2021/09/05 13:00:06;;;;;;;1.40;0.80;;;;;;;20.64;40.16;99951.78;4188603;84;28528;-79
2021/09/05 13:06:08;;;;;;;2.25;1.02;;;;;;;20.86;39.40;99935.64;4188839;85;28517;-82
2021/09/05 13:12:11;;;;;;;2.67;1.22;;;;;;;20.66;40.04;99935.09;4228116;84;28480;-81
2021/09/05 13:18:13;;;;;;;1.95;0.80;;;;;;;20.57;41.03;99934.85;4257711;84;28541;-80
2021/09/05 13:24:15;;;;;;;1.02;0.60;;;;;;;20.78;39.59;99937.01;4243318;82;28532;-80
2021/09/05 13:30:19;;;;;;;1.17;0.70;;;;;;;21.07;40.12;99936.38;4245502;84;28560;-81
2021/09/05 13:36:22;;;;;;;1.87;0.90;;;;;;;20.76;40.68;99944.11;4244141;84;28513;-80
2021/09/05 13:42:23;;;;;;;1.60;0.85;;;;;;;20.91;40.32;99944.38;4244035;84;28536;-81
2021/09/05 13:48:25;;;;;;;1.45;0.80;;;;;;;20.85;40.11;99938.91;4254352;83;28500;-84
2021/09/05 13:54:26;;;;;;;1.35;0.68;;;;;;;21.02;40.77;99942.67;4237257;82;28478;-85
2021/09/05 14:00:27;;;;;;;1.80;0.70;;;;;;;21.42;40.46;99939.22;4280118;82;28508;-84
2021/09/05 14:06:29;;;;;;;1.55;0.75;;;;;;;21.15;39.92;99941.83;4187940;83;28489;-81
2021/09/05 14:12:31;;;;;;;2.08;0.90;;;;;;;20.84;39.99;99940.00;4115771;85;28546;-80
2021/09/05 14:18:35;;;;;;;1.32;0.80;;;;;;;21.78;40.69;99943.16;4181076;83;28489;-81
2021/09/05 14:24:37;;;;;;;1.00;0.55;;;;;;;21.33;40.11;99938.17;4153242;83;28544;-79
2021/09/05 14:30:45;;;;;;;0.82;0.60;;;;;;;21.33;40.90;99940.91;4270670;82;28505;-81
2021/09/05 14:49:25;;;;;;;1.45;0.80;;;;;;;20.71;39.95;99943.30;4138308;83;28527;-82
2021/09/05 14:55:17;;;;;;;3.72;0.85;;;;;;;21.05;39.61;99943.23;4247956;82;28542;-85
2021/09/05 15:01:25;;;;;;;1.55;0.95;;;;;;;20.97;39.99;99939.97;4278891;83;28526;-81
2021/09/05 15:13:44;;;;;;;2.67;1.00;;;;;;;20.64;39.71;99940.03;4310996;82;28449;-83
2021/09/05 15:19:46;;;;;;;1.50;0.85;;;;;;;20.56;39.73;99939.48;4310377;82;28477;-81
2021/09/05 15:25:47;;;;;;;2.25;0.80;;;;;;;20.47;40.30;99946.06;4282310;83;28452;-81
2021/09/05 15:31:56;;;;;;;2.15;0.70;;;;;;;20.53;40.61;99943.34;4347644;82;28568;-78
2021/09/05 15:50:40;;;;;;;2.15;0.90;;;;;;;20.46;41.02;99936.23;4191412;83;28447;-80
2021/09/05 15:56:24;;;;;;;2.00;0.72;;;;;;;20.27;41.04;99929.70;4281778;83;28513;-80
2021/09/05 16:02:35;;;;;;;1.47;0.88;;;;;;;19.98;42.07;99937.90;4330895;82;28508;-80
2021/09/05 16:20:56;;;;;;;1.77;0.80;;;;;;;19.94;42.79;99928.59;4284115;83;28479;-81
2021/09/05 16:26:57;;;;;;;1.07;0.90;;;;;;;19.62;43.00;99938.64;4285534;83;28463;-78
2021/09/05 16:45:29;;;;;;;2.17;1.00;;;;;;;20.05;42.96;99938.45;4264766;81;28456;-77
2021/09/05 16:51:31;;;;;;;2.52;0.90;;;;;;;19.47;44.64;99944.03;4327867;81;28468;-79
2021/09/05 16:57:32;;;;;;;2.52;1.00;;;;;;;19.53;44.77;99944.34;4288677;82;28568;-80
2021/09/05 17:03:36;;;;;;;2.30;0.80;;;;;;;19.49;45.18;99947.34;4265691;82;28527;-83
2021/09/05 17:09:38;;;;;;;1.65;1.05;;;;;;;19.44;45.10;99946.78;4301466;82;28464;-83
2021/09/05 17:15:40;;;;;;;3.05;0.82;;;;;;;19.50;45.01;99951.14;4297848;82;28480;-83
2021/09/05 17:21:42;;;;;;;2.35;1.00;;;;;;;19.43;45.90;99955.22;4245720;82;28483;-84
2021/09/05 17:27:46;;;;;;;3.27;0.85;;;;;;;19.14;47.12;99959.73;4271332;82;28487;-81
2021/09/05 17:33:48;;;;;;;1.47;1.05;;;;;;;18.92;49.11;99961.52;4266370;82;28445;-81
2021/09/05 17:39:52;;;;;;;2.70;1.37;;;;;;;18.90;50.44;99965.06;4186271;82;28476;-80
2021/09/05 17:45:55;;;;;;;3.92;1.17;;;;;;;18.76;51.77;99975.59;4254671;82;28457;-81
2021/09/05 17:51:56;;;;;;;3.52;1.12;;;;;;;18.30;53.92;99991.05;4258882;82;28564;-84
2021/09/05 17:57:57;;;;;;;2.50;1.22;;;;;;;18.37;57.60;99997.08;4262961;82;28893;-84
2021/09/05 18:03:59;;;;;;;3.12;1.60;;;;;;;18.02;59.68;100003.83;4251342;82;28492;-85
2021/09/05 18:10:03;;;;;;;2.92;1.45;;;;;;;17.85;60.06;100006.66;4239341;82;28465;-83
2021/09/05 18:16:05;;;;;;;3.02;1.30;;;;;;;17.64;65.11;100002.34;4242453;82;28546;-85
2021/09/05 18:22:06;;;;;;;2.55;1.20;;;;;;;17.62;66.42;100009.11;4264492;82;28490;-84
2021/09/05 18:28:07;;;;;;;3.02;1.45;;;;;;;17.42;67.65;100017.30;4224181;82;28451;-81
2021/09/05 18:34:10;;;;;;;3.42;1.98;;;;;;;17.24;68.55;100021.16;4247254;82;28498;-83
2021/09/05 18:40:12;;;;;;;2.95;1.40;;;;;;;16.98;70.83;100025.66;4230453;82;28505;-82
2021/09/05 18:46:15;;;;;;;2.65;1.40;;;;;;;16.85;73.07;100030.09;4231507;82;28513;-83
2021/09/05 18:52:17;;;;;;;3.35;1.25;;;;;;;16.58;78.10;100033.47;4249317;82;28505;-82
2021/09/05 18:58:19;;;;;;;4.08;1.37;;;;;;;16.71;75.24;100031.80;4246449;82;28486;-84
2021/09/05 19:04:22;;;;;;;3.00;1.12;;;;;;;16.56;78.21;100031.54;4268437;82;28519;-85
2021/09/05 19:10:25;;;;;;;2.50;1.32;;;;;;;16.82;73.61;100028.69;4250835;82;28477;-85
2021/09/05 19:16:28;;;;;;;3.12;1.20;;;;;;;16.68;75.14;100028.75;4245261;82;28470;-84
2021/09/05 19:22:30;;;;;;;2.83;1.67;;;;;;;16.43;77.84;100034.03;4222998;82;28444;-88
2021/09/05 19:28:32;;;;;;;2.52;1.35;;;;;;;16.31;75.97;100029.50;4255436;82;28510;-88
2021/09/05 19:34:33;;;;;;;2.22;1.40;;;;;;;15.97;82.42;100028.09;4110066;84;28516;-87
2021/09/05 19:40:35;;;;;;;2.85;1.52;;;;;;;16.19;79.77;100030.63;4170076;84;28589;-84
2021/09/05 19:46:38;;;;;;;2.92;1.62;;;;;;;15.77;84.45;100026.31;4225948;82;28454;-86
2021/09/05 19:52:42;;;;;;;4.12;1.90;;;;;;;15.87;82.17;100023.80;4125302;84;28496;-82
2021/09/05 19:58:44;;;;;;;3.80;1.65;;;;;;;15.65;82.45;100028.54;4174982;83;28490;-87
2021/09/05 20:04:46;;;;;;;3.27;1.70;;;;;;;15.45;84.41;100035.19;4133309;84;28442;-85
2021/09/05 20:10:51;;;;;;;3.90;1.70;;;;;;;15.16;85.85;100032.95;4171330;84;28446;-87
2021/09/05 20:16:53;;;;;;;6.00;2.43;;;;;;;15.13;85.87;100033.39;4130564;84;28528;-87
2021/09/05 20:22:54;;;;;;;4.92;2.10;;;;;;;15.30;81.01;100037.55;4160870;83;28484;-84
2021/09/05 20:28:57;;;;;;;4.97;2.40;;;;;;;15.04;88.36;100041.88;4261150;81;28553;-85
2021/09/05 20:34:59;;;;;;;4.10;1.90;;;;;;;15.25;83.12;100051.00;4260220;81;28531;-86
2021/09/05 20:41:01;;;;;;;6.10;2.45;;;;;;;15.15;85.98;100049.71;4160798;82;28520;-82
2021/09/05 20:47:05;;;;;;;7.37;2.85;;;;;;;15.19;86.30;100052.78;4116777;84;28555;-83
2021/09/05 20:53:07;;;;;;;5.90;2.10;;;;;;;15.10;86.10;100056.91;4242040;81;28493;-85
2021/09/05 20:59:08;;;;;;;4.78;2.20;;;;;;;14.79;93.23;100052.96;4262230;81;28530;-85
2021/09/05 21:05:11;;;;;;;4.75;2.60;;;;;;;14.72;90.14;100053.05;4268840;81;28549;-85
2021/09/05 21:11:13;;;;;;;8.48;3.47;;;;;;;14.74;90.49;100051.47;4256205;81;28509;-86
2021/09/05 21:17:14;;;;;;;6.05;3.17;;;;;;;14.36;95.87;100049.44;4265418;81;28537;-84
2021/09/05 21:23:19;;;;;;;5.37;2.70;;;;;;;14.43;96.95;100047.98;4269019;81;28936;-86
2021/09/05 21:29:21;;;;;;;5.05;2.42;;;;;;;14.24;98.41;100050.75;4256305;81;28555;-86
2021/09/05 21:35:23;;;;;;;6.37;2.22;;;;;;;14.13;100.00;100052.89;4264447;81;28568;-85
2021/09/05 21:41:26;;;;;;;5.92;2.95;;;;;;;14.04;100.00;100051.84;4284966;81;28459;-86
2021/09/05 21:47:27;;;;;;;4.87;2.60;;;;;;;13.98;100.00;100051.43;4279044;81;28466;-84
2021/09/05 21:53:29;;;;;;;5.03;2.40;;;;;;;13.88;100.00;100056.56;4156905;83;28539;-85
2021/09/05 21:59:32;;;;;;;5.12;2.40;;;;;;;13.87;100.00;100067.88;4150544;84;28463;-85
2021/09/05 22:05:33;;;;;;;6.10;2.90;;;;;;;13.78;100.00;100067.89;4161551;84;28458;-86
2021/09/05 22:11:35;;;;;;;5.55;2.72;;;;;;;13.91;100.00;100072.31;4240851;82;28519;-85
2021/09/05 22:17:37;;;;;;;5.53;2.95;;;;;;;14.27;100.00;100068.40;4222057;82;28517;-84
2021/09/05 22:23:39;;;;;;;6.97;2.90;;;;;;;13.94;100.00;100068.63;4252100;82;28527;-84
2021/09/05 22:29:41;;;;;;;5.17;3.25;;;;;;;14.18;100.00;100068.72;4267492;82;28538;-84
2021/09/05 22:35:42;;;;;;;6.00;2.70;;;;;;;14.11;98.20;100066.66;4253200;82;28482;-84
2021/09/05 22:41:44;;;;;;;5.75;2.83;;;;;;;14.01;100.00;100069.08;4257720;82;28518;-84
2021/09/05 22:47:47;;;;;;;5.42;2.37;;;;;;;14.08;100.00;100077.39;4251218;82;28463;-86
2021/09/05 22:53:48;;;;;;;5.47;2.90;;;;;;;14.20;100.00;100072.55;4224297;82;28440;-85
2021/09/05 22:59:49;;;;;;;6.15;3.22;;;;;;;14.24;100.00;100074.28;4249262;81;28462;-86
2021/09/05 23:05:52;;;;;;;5.15;2.87;;;;;;;14.06;98.07;100068.69;4286627;81;28504;-85
2021/09/05 23:11:53;;;;;;;5.45;2.70;;;;;;;13.93;100.00;100065.62;4284896;81;28450;-85
2021/09/05 23:17:55;;;;;;;6.80;2.90;;;;;;;13.48;100.00;100060.03;4278779;81;28453;-85
2021/09/05 23:23:56;;;;;;;4.90;3.00;;;;;;;13.36;100.00;100059.11;4251344;81;28538;-85
2021/09/05 23:29:57;;;;;;;8.93;3.40;;;;;;;13.24;100.00;100064.41;4174301;83;28533;-85
2021/09/05 23:35:59;;;;;;;6.03;3.02;;;;;;;13.24;100.00;100059.02;4174962;83;28472;-85
2021/09/05 23:42:00;;;;;;;6.50;3.52;;;;;;;13.24;100.00;100061.72;4181436;83;28528;-84
2021/09/05 23:48:01;;;;;;;6.90;3.05;;;;;;;13.34;100.00;100046.36;4160248;84;28523;-84
2021/09/05 23:54:03;;;;;;;5.25;2.80;;;;;;;13.23;100.00;100050.10;4157638;82;28484;-83
